createdAt,value
2023-01-31T00:02:16.892Z,100.00
2023-01-31T00:04:51.088Z,100.00
2023-01-31T00:07:21.893Z,100.00
2023-01-31T00:11:08.046Z,100.00
2023-01-31T00:13:37.366Z,100.00
2023-01-31T00:16:07.566Z,100.00
2023-01-31T00:18:40.991Z,100.00
2023-01-31T00:21:13.717Z,100.00
2023-01-31T00:23:43.966Z,100.00
2023-01-31T00:26:15.649Z,100.00
2023-01-31T00:28:46.375Z,100.00
2023-01-31T00:31:18.555Z,100.00
2023-01-31T00:33:50.496Z,100.00
2023-01-31T00:36:28.656Z,100.00
2023-01-31T00:39:03.137Z,100.00
2023-01-31T00:41:36.623Z,100.00
2023-01-31T00:44:45.602Z,100.00
2023-01-31T00:47:17.468Z,100.00
2023-01-31T00:49:47.075Z,100.00
2023-01-31T00:52:18.075Z,100.00
2023-01-31T00:55:38.046Z,100.00
2023-01-31T00:58:07.437Z,100.00
2023-01-31T01:00:37.620Z,100.00
2023-01-31T01:03:07.419Z,100.00
2023-01-31T01:05:37.383Z,100.00
2023-01-31T01:08:09.047Z,100.00
2023-01-31T01:10:38.726Z,100.00
2023-01-31T01:13:08.406Z,100.00
2023-01-31T01:15:40.373Z,100.00
2023-01-31T01:18:11.172Z,100.00
2023-01-31T01:20:40.741Z,100.00
2023-01-31T01:23:11.888Z,100.00
2023-01-31T01:25:45.731Z,100.00
2023-01-31T01:28:15.524Z,100.00
2023-01-31T01:30:45.872Z,100.00
2023-01-31T01:33:15.265Z,100.00
2023-01-31T01:35:44.883Z,100.00
2023-01-31T01:38:18.677Z,100.00
2023-01-31T01:40:48.144Z,100.00
2023-01-31T01:43:18.459Z,100.00
2023-01-31T01:45:48.491Z,100.00
2023-01-31T01:48:19.877Z,100.00
2023-01-31T01:50:51.142Z,100.00
2023-01-31T01:53:23.699Z,100.00
2023-01-31T01:55:56.230Z,100.00
2023-01-31T01:58:30.132Z,100.00
2023-01-31T02:00:59.853Z,100.00
2023-01-31T02:03:29.581Z,100.00
2023-01-31T02:06:05.288Z,100.00
2023-01-31T02:08:38.184Z,100.00
2023-01-31T02:11:12.021Z,100.00
2023-01-31T02:13:42.569Z,100.00
2023-01-31T02:16:16.962Z,100.00
2023-01-31T02:18:47.841Z,100.00
2023-01-31T02:21:45.177Z,100.00
2023-01-31T02:24:50.494Z,100.00
2023-01-31T02:27:34.831Z,100.00
2023-01-31T02:30:36.883Z,100.00
2023-01-31T02:33:15.933Z,100.00
2023-01-31T02:35:53.015Z,100.00
2023-01-31T02:38:32.610Z,100.00
2023-01-31T02:41:10.836Z,100.00
2023-01-31T02:43:59.397Z,100.00
2023-01-31T02:46:40.259Z,100.00
2023-01-31T02:49:34.871Z,100.00
2023-01-31T02:52:52.821Z,100.00
2023-01-31T02:55:41.976Z,100.00
2023-01-31T02:58:13.464Z,100.00
2023-01-31T03:00:46.180Z,100.00
2023-01-31T03:03:21.936Z,100.00
2023-01-31T03:14:45.427Z,100.00
2023-01-31T03:17:35.385Z,100.00
2023-01-31T03:20:09.966Z,100.00
2023-01-31T03:22:43.852Z,100.00
2023-01-31T03:25:40.941Z,100.00
2023-01-31T03:28:16.438Z,100.00
2023-01-31T03:30:50.670Z,100.00
2023-01-31T03:33:25.291Z,100.00
2023-01-31T03:36:01.350Z,100.00
2023-01-31T03:38:36.125Z,100.00
2023-01-31T03:41:14.969Z,100.00
2023-01-31T03:43:48.350Z,100.00
2023-01-31T03:46:21.668Z,100.00
2023-01-31T03:48:54.627Z,100.00
2023-01-31T03:51:27.729Z,100.00
2023-01-31T03:54:00.759Z,100.00
2023-01-31T03:56:36.311Z,100.00
2023-01-31T03:59:09.641Z,100.00
2023-01-31T04:01:43.376Z,100.00
2023-01-31T04:04:16.108Z,100.00
2023-01-31T04:06:45.621Z,100.00
2023-01-31T04:09:15.336Z,100.00
2023-01-31T04:11:49.177Z,100.00
2023-01-31T04:14:19.204Z,100.00
2023-01-31T04:16:48.557Z,100.00
2023-01-31T04:19:17.888Z,100.00
2023-01-31T04:21:46.875Z,100.00
2023-01-31T04:24:16.006Z,100.00
2023-01-31T04:26:46.757Z,100.00
2023-01-31T04:29:16.083Z,100.00
2023-01-31T04:31:45.235Z,100.00
2023-01-31T04:34:14.880Z,100.00
2023-01-31T04:36:44.293Z,100.00
2023-01-31T04:39:15.323Z,100.00
2023-01-31T04:41:50.583Z,100.00
2023-01-31T04:44:19.836Z,100.00
2023-01-31T04:46:52.220Z,100.00
2023-01-31T04:49:21.959Z,100.00
2023-01-31T04:52:20.875Z,100.00
2023-01-31T04:54:50.429Z,100.00
2023-01-31T04:57:23.719Z,100.00
2023-01-31T04:59:55.485Z,100.00
2023-01-31T05:02:25.199Z,100.00
2023-01-31T05:04:55.507Z,100.00
2023-01-31T05:07:26.949Z,100.00
2023-01-31T05:09:56.169Z,100.00
2023-01-31T05:12:27.184Z,100.00
2023-01-31T05:14:56.284Z,100.00
2023-01-31T05:17:29.957Z,100.00
2023-01-31T05:19:59.366Z,100.00
2023-01-31T05:22:28.907Z,100.00
2023-01-31T05:24:58.709Z,100.00
2023-01-31T05:27:29.919Z,100.00
2023-01-31T05:29:58.964Z,100.00
2023-01-31T05:32:27.565Z,100.00
2023-01-31T05:34:56.704Z,100.00
2023-01-31T05:37:25.127Z,100.00
2023-01-31T05:39:56.953Z,100.00
2023-01-31T05:42:36.977Z,100.00
2023-01-31T05:45:06.620Z,100.00
2023-01-31T05:47:37.029Z,100.00
2023-01-31T05:53:09.525Z,100.00
2023-01-31T05:55:38.807Z,100.00
2023-01-31T06:01:37.643Z,100.00
2023-01-31T06:04:07.058Z,100.00
2023-01-31T06:06:36.055Z,100.00
2023-01-31T06:22:49.544Z,100.00
2023-01-31T06:25:46.871Z,100.00
2023-01-31T06:28:18.163Z,100.00
2023-01-31T06:30:51.063Z,100.00
2023-01-31T06:33:21.556Z,100.00
2023-01-31T06:35:52.115Z,100.00
2023-01-31T06:39:11.174Z,100.00
2023-01-31T09:32:33.447Z,85.98
2023-01-31T09:35:02.754Z,79.26
2023-01-31T09:37:33.335Z,73.52
2023-01-31T09:40:04.852Z,71.83
2023-01-31T09:42:38.352Z,64.01
2023-01-31T09:45:09.388Z,58.58
2023-01-31T12:19:29.542Z,39.28
2023-01-31T12:27:05.459Z,39.92
2023-01-31T12:43:43.365Z,38.45
2023-01-31T12:46:24.608Z,38.66
2023-01-31T12:53:34.887Z,38.91
2023-01-31T13:00:39.147Z,38.96
2023-01-31T13:03:34.914Z,39.40
2023-01-31T13:14:41.529Z,37.86
2023-01-31T13:18:27.450Z,37.49
2023-01-31T13:21:00.904Z,37.76
2023-01-31T13:24:16.866Z,37.63
2023-01-31T13:35:26.892Z,40.28
2023-01-31T13:43:48.212Z,41.81
2023-01-31T13:46:23.283Z,41.29
2023-01-31T13:49:51.427Z,40.71
2023-01-31T13:56:07.346Z,40.80
2023-01-31T14:00:02.538Z,40.63
2023-01-31T14:02:39.033Z,40.93
2023-01-31T14:15:35.513Z,42.41
2023-01-31T14:18:09.700Z,42.45
2023-01-31T14:26:38.847Z,41.75
2023-01-31T14:31:04.504Z,42.11
2023-01-31T14:37:56.827Z,40.48
2023-01-31T16:32:17.234Z,44.14
2023-01-31T16:36:29.716Z,45.71
2023-01-31T16:39:02.761Z,44.44
2023-01-31T16:42:30.166Z,44.45
2023-01-31T16:44:59.769Z,43.21
2023-01-31T16:47:47.883Z,44.02
2023-01-31T16:50:42.240Z,43.93
2023-01-31T16:53:28.234Z,45.46
2023-01-31T16:56:23.808Z,48.62
2023-01-31T16:58:54.699Z,50.52
2023-01-31T17:01:26.233Z,51.79
2023-01-31T17:04:19.527Z,52.36
2023-01-31T17:06:53.380Z,52.59
2023-01-31T17:09:28.509Z,54.42
2023-01-31T17:11:59.309Z,54.52
2023-01-31T17:14:27.873Z,56.35
2023-01-31T17:16:56.397Z,58.15
2023-01-31T17:19:26.847Z,59.15
2023-01-31T17:21:57.884Z,59.65
2023-01-31T17:24:27.285Z,61.13
2023-01-31T17:26:55.921Z,62.30
2023-01-31T17:29:26.705Z,61.43
2023-01-31T17:31:59.747Z,60.85
2023-01-31T17:34:37.620Z,60.03
2023-01-31T17:38:17.806Z,62.52
2023-01-31T17:40:50.595Z,67.54
2023-01-31T20:17:51.331Z,100.00
2023-01-31T20:20:33.193Z,100.00
2023-01-31T20:26:48.283Z,100.00
2023-01-31T20:30:28.907Z,100.00
2023-01-31T20:33:15.542Z,100.00
2023-01-31T20:36:19.073Z,100.00
2023-01-31T20:39:13.342Z,100.00
2023-01-31T20:42:00.981Z,100.00
2023-01-31T20:48:56.169Z,100.00
2023-01-31T20:51:37.050Z,100.00
2023-01-31T21:06:50.951Z,100.00
2023-01-31T21:09:23.392Z,100.00
2023-01-31T21:12:08.534Z,100.00
2023-01-31T21:14:42.130Z,100.00
2023-01-31T21:17:39.186Z,100.00
2023-01-31T21:20:12.793Z,100.00
2023-01-31T21:22:46.180Z,100.00
2023-01-31T21:25:15.272Z,100.00
2023-01-31T21:27:44.386Z,100.00
2023-01-31T21:30:16.069Z,100.00
2023-01-31T21:32:46.891Z,100.00
2023-01-31T21:35:16.895Z,100.00
2023-01-31T21:38:02.800Z,100.00
2023-01-31T21:40:34.133Z,100.00
2023-01-31T21:43:04.713Z,100.00
2023-01-31T21:45:43.024Z,100.00
2023-01-31T21:48:35.745Z,100.00
2023-01-31T21:51:06.834Z,100.00
2023-01-31T21:53:37.679Z,100.00
2023-01-31T22:00:17.196Z,100.00
2023-01-31T22:02:53.674Z,100.00
2023-01-31T22:05:22.638Z,100.00
2023-01-31T22:12:30.104Z,100.00
2023-01-31T22:14:58.506Z,100.00
2023-01-31T22:17:27.257Z,100.00
2023-01-31T22:19:55.595Z,100.00
2023-01-31T22:22:24.682Z,100.00
2023-01-31T22:24:56.118Z,100.00
2023-01-31T22:27:24.730Z,100.00
2023-01-31T22:30:00.748Z,100.00
2023-01-31T22:32:32.332Z,100.00
2023-01-31T22:35:04.714Z,100.00
2023-01-31T22:37:34.076Z,100.00
2023-01-31T22:40:03.263Z,100.00
2023-01-31T22:42:31.832Z,100.00
2023-01-31T22:45:02.521Z,100.00
2023-01-31T22:47:31.472Z,100.00
2023-01-31T22:50:00.781Z,100.00
2023-01-31T22:52:29.728Z,100.00
2023-01-31T22:54:58.960Z,100.00
2023-01-31T22:57:28.185Z,100.00
2023-01-31T22:59:57.014Z,100.00
2023-01-31T23:02:27.261Z,100.00
2023-01-31T23:04:56.154Z,100.00
2023-01-31T23:13:02.436Z,100.00
2023-01-31T23:15:31.227Z,100.00
2023-01-31T23:18:03.125Z,100.00
2023-01-31T23:34:12.734Z,100.00
2023-01-31T23:36:41.130Z,100.00
2023-01-31T23:39:10.691Z,100.00
2023-01-31T23:41:38.965Z,100.00
2023-01-31T23:44:07.255Z,100.00
2023-01-31T23:46:35.584Z,100.00
2023-01-31T23:49:03.930Z,100.00
2023-01-31T23:51:33.940Z,100.00
2023-01-31T23:54:02.294Z,100.00
2023-01-31T23:56:30.565Z,100.00
2023-01-31T23:58:58.907Z,100.00
